Southern Utah University
, Cedar City
Last Weather Update:08/30/2011 11:00:00 PM
Date
ETo
ETc
Rain
Irrigation
Req
Temp
Max
Temp
Min
Temp
Avg
Avg RH
Avg Wind
Avg Solar
inches
inches
incehs
inches
F
F
F
%
%
watts/m2
07/01/2011 0.27" 0.22" 0.00" 0.22" 90.5° 57.2° 74.8° 28.0% 3.1 MPH 364.1w/m2
07/02/2011 0.30" 0.25" 0.00" 0.25" 94.6° 60.8° 79.1° 21.8% 4.1 MPH 366.9w/m2
07/03/2011 0.26" 0.21" 0.00" 0.21" 94.9° 67.2° 79.9° 22.2% 3.8 MPH 288.7w/m2
07/04/2011 0.20" 0.17" 0.00" 0.17" 84.5° 67.6° 75.9° 37.8% 3.9 MPH 223.2w/m2
07/05/2011 0.21" 0.17" 0.04" 0.14" 88.1° 58.5° 72.0° 57.3% 3.1 MPH 263.9w/m2
07/06/2011 0.18" 0.15" 0.11" 0.06" 87.5° 61.3° 70.2° 63.7% 2.6 MPH 245.7w/m2
07/07/2011 0.27" 0.23" 0.05" 0.19" 86.4° 59.7° 73.2° 52.2% 4.7 MPH 339.0w/m2
07/08/2011 0.20" 0.17" 0.21" 0.00" 83.9° 59.3° 71.4° 58.0% 3.8 MPH 262.0w/m2
07/09/2011 0.24" 0.20" 0.00" 0.20" 85.7° 62.5° 73.0° 49.1% 3.6 MPH 309.1w/m2
07/10/2011 0.18" 0.15" 0.00" 0.15" 82.6° 65.8° 72.3° 47.6% 3.7 MPH 221.0w/m2
07/11/2011 0.16" 0.13" 0.01" 0.13" 80.3° 66.0° 71.8° 47.5% 3.8 MPH 187.6w/m2
07/12/2011 0.25" 0.21" 0.00" 0.21" 81.8° 62.1° 72.4° 41.7% 5.2 MPH 293.6w/m2
07/13/2011 0.25" 0.21" 0.00" 0.21" 81.6° 59.6° 72.3° 33.5% 5.8 MPH 281.6w/m2
07/14/2011 0.29" 0.25" 0.00" 0.25" 82.3° 56.6° 70.3° 24.9% 5.4 MPH 362.1w/m2
07/15/2011 0.28" 0.24" 0.00" 0.24" 81.5° 56.9° 69.8° 24.4% 4.7 MPH 364.7w/m2
07/16/2011 0.30" 0.25" 0.00" 0.25" 84.8° 54.6° 71.7° 23.4% 5.2 MPH 366.7w/m2
07/17/2011 0.28" 0.24" 0.00" 0.24" 89.8° 59.2° 75.7° 21.7% 5.1 MPH 298.3w/m2
07/18/2011 0.21" 0.18" 0.00" 0.18" 85.1° 69.5° 78.5° 32.6% 5.6 MPH 182.6w/m2
07/19/2011 0.28" 0.24" 0.00" 0.24" 87.7° 69.6° 78.1° 35.0% 6.0 MPH 303.6w/m2
07/20/2011 0.30" 0.26" 0.00" 0.26" 89.1° 65.8° 78.3° 23.8% 4.7 MPH 352.3w/m2
07/21/2011 0.32" 0.28" 0.00" 0.28" 88.7° 61.0° 76.4° 13.1% 5.5 MPH 366.1w/m2
07/22/2011 0.32" 0.28" 0.00" 0.28" 87.5° 57.1° 73.8° 14.7% 5.5 MPH 370.6w/m2
07/23/2011 0.26" 0.23" 0.00" 0.23" 89.0° 58.2° 75.9° 19.3% 2.8 MPH 357.6w/m2
07/24/2011 0.25" 0.22" 0.00" 0.22" 91.2° 62.4° 78.5° 25.9% 2.9 MPH 324.3w/m2
07/25/2011 0.22" 0.19" 0.03" 0.17" 91.3° 67.3° 77.1° 38.2% 2.9 MPH 270.4w/m2
07/26/2011 0.10" 0.08" 0.95" -0.68" 74.5° 60.5° 66.4° 75.6% 3.8 MPH 126.6w/m2
07/27/2011 0.25" 0.22" 0.00" 0.22" 84.4° 59.0° 72.1° 52.5% 4.2 MPH 326.9w/m2
07/28/2011 0.21" 0.19" 0.00" 0.19" 89.6° 57.9° 74.1° 43.5% 2.0 MPH 292.2w/m2
07/29/2011 0.19" 0.17" 0.00" 0.17" 89.5° 64.2° 76.6° 35.5% 3.0 MPH 205.4w/m2
07/30/2011 0.16" 0.14" 0.03" 0.12" 86.6° 67.2° 75.2° 46.6% 1.6 MPH 191.2w/m2
07/31/2011 0.10" 0.09" 0.25" -0.11" 75.3° 62.7° 69.2° 71.7% 2.7 MPH 130.2w/m2
Totals: 7.31" 6.21" 1.68" 4.87" 94.9° 54.6° 74.1° 38.2% 4.0 MPH 285.1w/m2